createdAt,value
2019-01-29T00:03:01.617Z,100.00
2019-01-29T00:08:06.826Z,100.00
2019-01-29T00:13:11.213Z,100.00
2019-01-29T00:18:15.317Z,100.00
2019-01-29T00:23:19.379Z,100.00
2019-01-29T00:28:23.551Z,100.00
2019-01-29T00:33:28.495Z,100.00
2019-01-29T00:38:32.526Z,100.00
2019-01-29T00:43:36.557Z,100.00
2019-01-29T00:48:40.606Z,100.00
2019-01-29T00:53:44.683Z,100.00
2019-01-29T00:58:48.717Z,100.00
2019-01-29T01:03:52.736Z,100.00
2019-01-29T01:08:56.814Z,100.00
2019-01-29T01:14:01.114Z,100.00
2019-01-29T01:19:05.235Z,100.00
2019-01-29T01:24:09.316Z,100.00
2019-01-29T01:29:13.365Z,100.00
2019-01-29T01:34:17.637Z,100.00
2019-01-29T01:39:21.692Z,100.00
2019-01-29T01:44:25.745Z,100.00
2019-01-29T01:49:29.754Z,100.00
2019-01-29T01:54:33.824Z,100.00
2019-01-29T01:59:37.895Z,100.00
2019-01-29T02:04:41.938Z,100.00
2019-01-29T02:09:46.005Z,100.00
2019-01-29T02:14:50.027Z,100.00
2019-01-29T02:19:54.055Z,100.00
2019-01-29T02:24:58.144Z,100.00
2019-01-29T02:30:02.323Z,100.00
2019-01-29T02:35:06.612Z,100.00
2019-01-29T02:40:14.404Z,100.00
2019-01-29T02:45:18.645Z,100.00
2019-01-29T02:50:22.683Z,100.00
2019-01-29T02:55:26.759Z,100.00
2019-01-29T03:00:30.796Z,100.00
2019-01-29T03:05:35.987Z,100.00
2019-01-29T03:10:40.127Z,100.00
2019-01-29T03:15:44.198Z,100.00
2019-01-29T03:20:48.220Z,100.00
2019-01-29T03:25:52.254Z,100.00
2019-01-29T03:30:56.529Z,100.00
2019-01-29T03:36:00.576Z,100.00
2019-01-29T03:41:04.608Z,100.00
2019-01-29T03:46:08.665Z,100.00
2019-01-29T03:51:12.704Z,100.00
2019-01-29T03:56:16.715Z,100.00
2019-01-29T04:01:21.042Z,100.00
2019-01-29T04:06:25.631Z,100.00
2019-01-29T04:11:29.676Z,100.00
2019-01-29T04:16:33.718Z,100.00
2019-01-29T04:21:37.793Z,100.00
2019-01-29T04:26:42.147Z,100.00
2019-01-29T04:31:46.198Z,99.43
2019-01-29T04:36:50.284Z,99.83
2019-01-29T04:41:54.609Z,98.36
2019-01-29T04:46:58.668Z,98.61
2019-01-29T04:52:02.814Z,97.47
2019-01-29T04:57:07.116Z,97.64
2019-01-29T05:02:11.198Z,97.20
2019-01-29T05:07:15.245Z,97.41
2019-01-29T05:12:19.275Z,98.04
2019-01-29T05:17:23.370Z,98.35
2019-01-29T05:22:27.382Z,99.08
2019-01-29T05:27:31.391Z,99.65
2019-01-29T05:32:35.551Z,100.00
2019-01-29T05:37:39.609Z,100.00
2019-01-29T05:42:43.749Z,100.00
2019-01-29T05:47:47.828Z,100.00
2019-01-29T05:52:51.914Z,100.00
2019-01-29T05:57:56.065Z,100.00
2019-01-29T06:03:00.252Z,100.00
2019-01-29T06:08:05.259Z,100.00
2019-01-29T06:13:12.004Z,100.00
2019-01-29T06:18:16.329Z,100.00
2019-01-29T06:23:20.421Z,100.00
2019-01-29T06:28:24.617Z,100.00
2019-01-29T06:33:28.765Z,100.00
2019-01-29T06:38:32.883Z,100.00
2019-01-29T06:43:36.970Z,100.00
2019-01-29T06:48:41.018Z,100.00
2019-01-29T06:53:45.073Z,100.00
2019-01-29T06:58:49.142Z,100.00
2019-01-29T07:03:53.350Z,100.00
2019-01-29T07:08:57.681Z,100.00
2019-01-29T07:14:05.022Z,100.00
2019-01-29T07:19:09.106Z,100.00
2019-01-29T07:24:13.179Z,100.00
2019-01-29T07:29:17.704Z,100.00
2019-01-29T07:34:22.173Z,100.00
2019-01-29T07:39:26.772Z,100.00
2019-01-29T07:44:31.320Z,100.00
2019-01-29T07:49:35.408Z,100.00
2019-01-29T07:54:39.422Z,100.00
2019-01-29T07:59:43.585Z,100.00
2019-01-29T08:04:47.595Z,100.00
2019-01-29T08:09:51.897Z,100.00
2019-01-29T08:14:56.015Z,100.00
2019-01-29T08:20:00.137Z,100.00
2019-01-29T08:25:04.602Z,100.00
2019-01-29T08:30:08.915Z,100.00
2019-01-29T08:35:13.364Z,100.00
2019-01-29T08:40:17.503Z,100.00
2019-01-29T08:45:21.560Z,98.70
2019-01-29T08:50:25.707Z,97.43
2019-01-29T08:55:29.751Z,97.17
2019-01-29T09:00:33.831Z,96.70
2019-01-29T09:05:37.852Z,96.29
2019-01-29T09:10:41.942Z,95.38
2019-01-29T09:15:46.068Z,96.28
2019-01-29T09:20:50.109Z,94.62
2019-01-29T09:25:55.349Z,94.62
2019-01-29T09:30:59.711Z,94.30
2019-01-29T09:36:03.958Z,94.92
2019-01-29T09:41:08.076Z,95.32
2019-01-29T09:46:12.152Z,96.20
2019-01-29T09:51:17.802Z,95.90
2019-01-29T09:56:21.799Z,96.08
2019-01-29T10:01:26.133Z,95.14
2019-01-29T10:06:30.221Z,94.60
2019-01-29T10:11:34.296Z,94.71
2019-01-29T10:16:39.283Z,94.00
2019-01-29T10:21:43.611Z,93.35
2019-01-29T10:26:47.632Z,93.78
2019-01-29T10:31:51.694Z,92.70
2019-01-29T10:36:56.076Z,92.81
2019-01-29T10:42:05.971Z,90.69
2019-01-29T10:47:12.079Z,90.81
2019-01-29T10:52:16.380Z,89.75
2019-01-29T10:57:21.441Z,90.84
2019-01-29T11:02:25.448Z,89.95
2019-01-29T11:07:29.486Z,90.46
2019-01-29T11:12:34.511Z,91.78
2019-01-29T11:17:38.828Z,92.32
2019-01-29T11:22:43.162Z,89.53
2019-01-29T11:27:47.489Z,90.28
2019-01-29T11:32:51.752Z,89.14
2019-01-29T11:37:56.540Z,89.09
2019-01-29T11:43:00.925Z,90.50
2019-01-29T11:48:05.256Z,90.72
2019-01-29T11:53:09.347Z,90.30
2019-01-29T11:58:13.624Z,89.04
2019-01-29T12:03:17.708Z,88.74
2019-01-29T12:08:21.843Z,88.62
2019-01-29T12:13:25.857Z,89.01
2019-01-29T12:18:29.931Z,87.97
2019-01-29T12:23:34.388Z,88.94
2019-01-29T12:28:38.509Z,87.42
2019-01-29T12:33:42.527Z,84.56
2019-01-29T12:38:46.867Z,80.45
2019-01-29T12:43:51.400Z,81.13
2019-01-29T12:48:55.434Z,75.85
2019-01-29T12:53:59.674Z,77.08
2019-01-29T12:59:03.855Z,74.16
2019-01-29T13:04:08.123Z,73.37
2019-01-29T13:09:12.397Z,73.52
2019-01-29T13:14:16.572Z,75.99
2019-01-29T13:19:20.657Z,79.75
2019-01-29T13:24:25.289Z,79.88
2019-01-29T13:29:29.848Z,77.33
2019-01-29T13:34:33.956Z,79.64
2019-01-29T13:39:38.617Z,78.67
2019-01-29T13:44:42.620Z,80.42
2019-01-29T13:49:47.047Z,81.58
2019-01-29T13:54:51.138Z,81.90
2019-01-29T13:59:55.241Z,80.02
2019-01-29T14:04:59.285Z,81.61
2019-01-29T14:10:03.947Z,80.90
2019-01-29T14:15:10.372Z,82.54
2019-01-29T14:20:15.590Z,82.68
2019-01-29T14:25:19.869Z,84.01
2019-01-29T14:30:24.225Z,84.91
2019-01-29T14:35:28.297Z,84.82
2019-01-29T14:40:32.324Z,85.57
2019-01-29T14:45:42.668Z,86.15
2019-01-29T14:51:04.408Z,86.55
2019-01-29T14:56:26.311Z,87.14
2019-01-29T15:01:48.204Z,87.36
2019-01-29T15:06:52.334Z,88.95
2019-01-29T15:11:56.387Z,89.59
2019-01-29T15:17:00.451Z,90.05
2019-01-29T15:22:04.501Z,90.58
2019-01-29T15:27:08.663Z,91.54
2019-01-29T15:32:31.149Z,92.41
2019-01-29T15:37:36.984Z,93.25
2019-01-29T15:42:41.083Z,93.82
2019-01-29T15:47:45.130Z,94.29
2019-01-29T15:52:49.168Z,94.55
2019-01-29T15:58:13.274Z,94.97
2019-01-29T16:03:46.529Z,95.36
2019-01-29T16:08:53.232Z,96.28
2019-01-29T16:13:57.994Z,96.71
2019-01-29T16:19:02.276Z,97.39
2019-01-29T16:24:06.280Z,97.40
2019-01-29T16:29:10.326Z,97.90
2019-01-29T16:34:14.399Z,98.62
2019-01-29T16:39:18.518Z,99.18
2019-01-29T16:44:22.699Z,99.72
2019-01-29T16:49:26.950Z,99.59
2019-01-29T16:54:31.416Z,100.00
2019-01-29T16:59:35.522Z,100.00
2019-01-29T17:04:39.654Z,100.00
2019-01-29T17:09:45.466Z,100.00
2019-01-29T17:14:49.997Z,100.00
2019-01-29T17:19:54.049Z,100.00
2019-01-29T17:24:58.087Z,100.00
2019-01-29T17:30:06.711Z,100.00
2019-01-29T17:35:10.952Z,100.00
2019-01-29T17:40:15.525Z,99.47
2019-01-29T17:45:28.314Z,98.69
2019-01-29T17:50:34.307Z,98.24
2019-01-29T17:55:39.525Z,97.92
2019-01-29T18:00:43.736Z,97.49
2019-01-29T18:05:47.958Z,95.98
2019-01-29T18:10:52.074Z,94.37
2019-01-29T18:15:56.211Z,94.43
2019-01-29T18:21:00.375Z,94.84
2019-01-29T18:26:04.553Z,95.68
2019-01-29T18:31:08.648Z,96.03
2019-01-29T18:36:12.725Z,96.51
2019-01-29T18:41:16.926Z,97.50
2019-01-29T18:46:21.704Z,97.88
2019-01-29T18:51:25.805Z,96.40
2019-01-29T18:56:32.893Z,96.46
2019-01-29T19:01:37.279Z,96.42
2019-01-29T19:06:41.402Z,95.96
2019-01-29T19:11:45.623Z,95.50
2019-01-29T19:16:49.694Z,95.55
2019-01-29T19:21:53.776Z,95.78
2019-01-29T19:26:57.856Z,96.23
2019-01-29T19:32:01.884Z,97.14
2019-01-29T19:37:06.216Z,96.52
2019-01-29T19:42:10.305Z,95.86
2019-01-29T19:47:14.316Z,97.16
2019-01-29T19:52:21.377Z,97.67
2019-01-29T19:57:25.520Z,98.20
2019-01-29T20:02:29.603Z,98.15
2019-01-29T20:07:33.706Z,99.00
2019-01-29T20:12:38.237Z,98.77
2019-01-29T20:17:42.374Z,99.36
2019-01-29T20:22:46.397Z,100.00
2019-01-29T20:27:53.098Z,100.00
2019-01-29T20:32:56.398Z,100.00
2019-01-29T20:38:00.457Z,100.00
2019-01-29T20:43:04.991Z,100.00
2019-01-29T20:48:09.288Z,100.00
2019-01-29T20:53:13.384Z,100.00
2019-01-29T20:58:17.438Z,100.00
2019-01-29T21:03:21.624Z,100.00
2019-01-29T21:08:25.951Z,100.00
2019-01-29T21:13:30.449Z,100.00
2019-01-29T21:18:34.758Z,100.00
2019-01-29T21:23:38.791Z,100.00
2019-01-29T21:28:42.894Z,100.00
2019-01-29T21:33:46.980Z,100.00
2019-01-29T21:38:51.039Z,100.00
2019-01-29T21:43:56.643Z,100.00
2019-01-29T21:49:01.267Z,100.00
2019-01-29T21:54:05.374Z,100.00
2019-01-29T21:59:13.354Z,100.00
2019-01-29T22:04:15.253Z,100.00
2019-01-29T22:09:19.317Z,100.00
2019-01-29T22:14:23.372Z,100.00
2019-01-29T22:19:27.418Z,100.00
2019-01-29T22:24:31.508Z,100.00
2019-01-29T22:29:35.571Z,100.00
2019-01-29T22:34:39.645Z,100.00
2019-01-29T22:39:43.688Z,100.00
2019-01-29T22:44:47.737Z,100.00
2019-01-29T22:49:52.183Z,100.00
2019-01-29T22:54:56.163Z,100.00
2019-01-29T23:00:00.229Z,100.00
2019-01-29T23:05:05.252Z,100.00
2019-01-29T23:10:13.845Z,100.00
2019-01-29T23:15:18.688Z,100.00
2019-01-29T23:20:22.745Z,100.00
2019-01-29T23:25:26.880Z,100.00
2019-01-29T23:30:31.381Z,100.00
2019-01-29T23:35:35.376Z,100.00
2019-01-29T23:40:39.434Z,100.00
2019-01-29T23:45:43.572Z,100.00
2019-01-29T23:50:47.571Z,100.00
2019-01-29T23:55:51.635Z,100.00
